Time;durP1;ratioP1;P1;durP2;ratioP2;P2;SDS_P1;SDS_P2;PMS_P1;PMS_P2;Temp;Humidity;BMP_temperature;BMP_pressure;BME280_temperature;BME280_humidity;BME280_pressure;Samples;Min_cycle;Max_cycle;Signal;HPM_P1;HPM_P2
2022/06/26 00:01:56;;;;;;;7.63;3.90;;;17.50;99.90;;;;;;5074963;28;20064;-85
2022/06/26 00:04:21;;;;;;;7.32;3.30;;;17.50;99.90;;;;;;5083852;28;20447;-84
2022/06/26 00:06:47;;;;;;;8.57;3.55;;;17.50;99.90;;;;;;5098100;28;20972;-85
2022/06/26 00:09:19;;;;;;;6.63;3.47;;;17.50;99.90;;;;;;5068348;28;20044;-85
2022/06/26 00:11:44;;;;;;;7.65;3.22;;;17.50;99.90;;;;;;5083401;28;20162;-85
2022/06/26 00:14:11;;;;;;;7.47;3.38;;;17.50;99.90;;;;;;5082430;28;20054;-85
2022/06/26 00:16:37;;;;;;;7.15;3.08;;;17.40;99.90;;;;;;5071709;28;20051;-85
2022/06/26 00:19:02;;;;;;;7.57;3.03;;;17.40;99.90;;;;;;5098578;28;20044;-85
2022/06/26 00:21:28;;;;;;;6.68;3.30;;;17.30;99.90;;;;;;5088971;28;20043;-84
2022/06/26 00:23:56;;;;;;;8.63;4.28;;;17.30;99.90;;;;;;5082689;28;20072;-85
2022/06/26 00:26:25;;;;;;;10.35;5.38;;;17.30;99.90;;;;;;5083894;28;20054;-86
2022/06/26 00:28:52;;;;;;;9.32;5.88;;;17.30;99.90;;;;;;5083371;28;20059;-84
2022/06/26 00:31:23;;;;;;;6.80;5.35;;;17.30;99.90;;;;;;5098858;28;20040;-85
2022/06/26 00:33:49;;;;;;;10.15;5.75;;;17.40;99.90;;;;;;5083609;28;20095;-85
2022/06/26 00:36:15;;;;;;;8.98;4.85;;;17.40;99.90;;;;;;5091931;28;20076;-85
2022/06/26 00:38:41;;;;;;;7.47;4.35;;;17.30;99.90;;;;;;5083213;28;20055;-84
2022/06/26 00:41:07;;;;;;;9.45;4.53;;;17.30;99.90;;;;;;5085980;28;20480;-85
2022/06/26 00:43:33;;;;;;;7.28;4.40;;;17.30;99.90;;;;;;5082322;28;20077;-85
2022/06/26 00:45:58;;;;;;;8.38;4.57;;;17.30;99.90;;;;;;5086488;28;20090;-84
2022/06/26 00:48:30;;;;;;;8.35;4.70;;;17.30;99.90;;;;;;5081806;28;20069;-86
2022/06/26 00:50:56;;;;;;;6.72;4.07;;;17.30;99.90;;;;;;5083538;28;20040;-84
2022/06/26 00:53:24;;;;;;;6.65;3.72;;;17.30;99.90;;;;;;5082806;28;20055;-85
2022/06/26 00:55:50;;;;;;;6.68;4.10;;;17.20;99.90;;;;;;5085797;28;20136;-85
2022/06/26 00:58:16;;;;;;;7.53;3.97;;;17.20;99.90;;;;;;5067263;28;20121;-84
2022/06/26 01:00:42;;;;;;;7.55;3.80;;;17.20;99.90;;;;;;5101459;28;20047;-84
2022/06/26 01:03:11;;;;;;;5.47;3.72;;;17.20;99.90;;;;;;5094159;28;20043;-86
2022/06/26 01:05:39;;;;;;;5.13;3.95;;;17.20;99.90;;;;;;5102076;28;20048;-83
2022/06/26 01:08:07;;;;;;;7.75;3.47;;;17.10;99.90;;;;;;5090463;28;20054;-84
2022/06/26 01:10:34;;;;;;;5.72;3.30;;;17.10;99.90;;;;;;5093380;28;20051;-85
2022/06/26 01:13:01;;;;;;;4.20;2.85;;;17.30;99.90;;;;;;5085402;28;20051;-85
2022/06/26 01:15:27;;;;;;;4.88;3.60;;;17.10;99.90;;;;;;5077052;28;20079;-84
2022/06/26 01:17:55;;;;;;;6.00;3.47;;;17.10;99.90;;;;;;5096476;28;20079;-84
2022/06/26 01:20:21;;;;;;;5.00;3.28;;;17.10;99.90;;;;;;5087176;28;20120;-85
2022/06/26 01:23:03;;;;;;;7.60;4.28;;;17.00;99.90;;;;;;5084953;28;20126;-85
2022/06/26 01:25:44;;;;;;;6.80;4.32;;;17.00;99.90;;;;;;5093169;28;20079;-85
2022/06/26 01:28:10;;;;;;;7.25;4.40;;;16.50;99.90;;;;;;5082918;28;20044;-84
2022/06/26 01:30:40;;;;;;;7.00;4.65;;;17.00;99.90;;;;;;5082112;28;20131;-84
2022/06/26 01:33:07;;;;;;;7.72;4.65;;;17.00;99.90;;;;;;5080902;28;20055;-85
2022/06/26 01:35:33;;;;;;;5.65;3.28;;;17.00;99.90;;;;;;5090308;28;20071;-85
2022/06/26 01:38:30;;;;;;;4.60;3.53;;;17.00;99.90;;;;;;5099458;28;20079;-84
2022/06/26 01:40:56;;;;;;;6.30;3.67;;;17.00;99.90;;;;;;5099850;28;20063;-84
2022/06/26 01:43:33;;;;;;;6.45;3.40;;;17.00;99.90;;;;;;5087326;28;20083;-85
2022/06/26 01:46:00;;;;;;;5.40;3.30;;;17.00;99.90;;;;;;5094172;28;20048;-85
2022/06/26 01:48:27;;;;;;;5.57;2.60;;;17.00;99.90;;;;;;5087325;28;20048;-85
2022/06/26 01:50:55;;;;;;;4.38;2.63;;;17.00;99.90;;;;;;5094463;28;20052;-86
2022/06/26 01:53:21;;;;;;;5.72;2.80;;;16.60;99.90;;;;;;5084815;28;20052;-84
2022/06/26 01:55:47;;;;;;;4.90;2.85;;;17.00;99.90;;;;;;5087823;28;20055;-84
2022/06/26 01:58:18;;;;;;;4.28;2.90;;;17.00;99.90;;;;;;5087208;28;20124;-85
2022/06/26 02:00:46;;;;;;;3.83;2.40;;;17.80;99.90;;;;;;5085342;28;20048;-84
2022/06/26 02:03:13;;;;;;;5.43;2.80;;;17.00;99.90;;;;;;5086742;28;20134;-85
2022/06/26 02:05:39;;;;;;;3.30;2.50;;;17.00;99.90;;;;;;5085235;28;20105;-85
2022/06/26 02:08:06;;;;;;;4.05;2.60;;;17.00;99.90;;;;;;5086107;28;20048;-84
2022/06/26 02:16:11;;;;;;;4.68;2.97;;;17.00;99.90;;;;;;5107294;28;20127;-85
2022/06/26 02:18:42;;;;;;;4.93;2.70;;;17.10;99.90;;;;;;5085448;28;20117;-84
2022/06/26 02:21:11;;;;;;;4.75;2.65;;;17.10;99.90;;;;;;5101148;28;20411;-86
2022/06/26 02:23:41;;;;;;;3.20;2.13;;;17.00;99.90;;;;;;5091200;28;20040;-86
2022/06/26 02:26:10;;;;;;;3.90;2.20;;;17.40;99.90;;;;;;5092016;28;20040;-85
2022/06/26 02:28:37;;;;;;;4.22;1.95;;;17.10;99.90;;;;;;5100265;28;20040;-86
2022/06/26 02:31:04;;;;;;;3.13;2.13;;;17.10;99.90;;;;;;5104142;28;20051;-86
2022/06/26 02:33:32;;;;;;;3.65;2.60;;;17.10;99.90;;;;;;5073752;28;20081;-85
2022/06/26 02:35:59;;;;;;;4.18;2.10;;;17.10;99.90;;;;;;5084524;28;20460;-86
2022/06/26 02:38:25;;;;;;;4.22;2.03;;;16.70;99.90;;;;;;5084701;28;20062;-85
2022/06/26 02:40:52;;;;;;;3.20;2.10;;;17.20;99.90;;;;;;5083992;28;20052;-86
2022/06/26 02:43:26;;;;;;;3.35;2.65;;;17.20;99.90;;;;;;5102390;28;20040;-86
2022/06/26 02:45:53;;;;;;;5.97;4.10;;;17.20;99.90;;;;;;5086527;28;20138;-85
2022/06/26 02:48:20;;;;;;;6.43;4.55;;;17.30;99.90;;;;;;5084078;28;20048;-85
2022/06/26 02:50:47;;;;;;;5.85;4.40;;;17.30;99.90;;;;;;5093356;28;20047;-85
2022/06/26 02:53:13;;;;;;;5.75;4.15;;;17.40;99.90;;;;;;5086434;28;20043;-84
2022/06/26 02:55:39;;;;;;;9.10;4.55;;;17.40;99.90;;;;;;5100574;28;20062;-84
2022/06/26 02:58:05;;;;;;;7.28;4.95;;;17.40;99.90;;;;;;5091523;28;20051;-84
2022/06/26 03:00:31;;;;;;;8.45;5.20;;;17.50;99.90;;;;;;5085621;28;20111;-85
2022/06/26 03:02:59;;;;;;;7.45;5.88;;;17.40;99.90;;;;;;5058846;28;20816;-84
2022/06/26 03:05:25;;;;;;;7.60;5.95;;;17.40;99.90;;;;;;5084980;28;20059;-84
2022/06/26 03:07:51;;;;;;;7.93;6.30;;;17.40;99.90;;;;;;5102670;28;20143;-85
2022/06/26 03:10:16;;;;;;;9.05;6.13;;;17.40;99.90;;;;;;5099347;28;20043;-85
2022/06/26 03:12:44;;;;;;;9.27;6.15;;;17.30;99.90;;;;;;5084612;28;20123;-85
2022/06/26 03:15:10;;;;;;;9.10;6.68;;;17.30;99.90;;;;;;5085479;28;20048;-85
2022/06/26 03:17:35;;;;;;;8.30;6.32;;;17.30;99.90;;;;;;5092385;28;20070;-84
2022/06/26 03:20:04;;;;;;;8.40;6.95;;;16.80;99.90;;;;;;5084127;28;20055;-85
2022/06/26 03:22:33;;;;;;;9.13;6.60;;;17.30;99.90;;;;;;5065453;28;20056;-85
2022/06/26 03:24:59;;;;;;;7.68;6.88;;;17.30;99.90;;;;;;5085384;28;20051;-84
2022/06/26 03:27:27;;;;;;;9.13;6.95;;;17.30;99.90;;;;;;5083698;28;20941;-84
2022/06/26 03:29:53;;;;;;;7.90;6.40;;;17.30;99.90;;;;;;5066922;28;20802;-85
2022/06/26 03:32:19;;;;;;;9.68;6.47;;;17.20;99.90;;;;;;5081851;28;20047;-84
2022/06/26 03:34:45;;;;;;;10.60;6.50;;;17.30;99.90;;;;;;5083430;28;20036;-85
2022/06/26 03:37:11;;;;;;;8.88;6.63;;;17.20;99.90;;;;;;5067706;28;20044;-84
2022/06/26 03:39:41;;;;;;;9.40;7.38;;;17.30;99.90;;;;;;5099373;28;20036;-84
2022/06/26 03:42:09;;;;;;;9.43;7.70;;;17.20;99.90;;;;;;5073978;28;20048;-84
2022/06/26 03:44:37;;;;;;;10.10;7.40;;;17.20;99.90;;;;;;5084017;28;20170;-84
2022/06/26 03:47:08;;;;;;;9.52;7.13;;;17.20;99.90;;;;;;5082569;28;20044;-84
2022/06/26 03:49:34;;;;;;;9.57;7.30;;;17.20;99.90;;;;;;5091059;28;20044;-84
2022/06/26 03:52:00;;;;;;;10.98;7.82;;;17.20;99.90;;;;;;5083473;28;20052;-84
2022/06/26 03:54:27;;;;;;;10.70;7.80;;;17.10;99.90;;;;;;5090121;28;20052;-84
2022/06/26 03:56:53;;;;;;;10.60;8.57;;;17.20;99.90;;;;;;5092046;28;20087;-84
2022/06/26 03:59:21;;;;;;;9.25;8.20;;;17.20;99.90;;;;;;5084283;28;20052;-85
2022/06/26 04:01:47;;;;;;;11.52;8.40;;;17.30;99.90;;;;;;5083309;28;20067;-84
2022/06/26 04:04:13;;;;;;;12.63;9.13;;;17.20;99.90;;;;;;5082196;28;20106;-84
2022/06/26 04:06:39;;;;;;;9.82;8.07;;;16.60;99.90;;;;;;5082457;28;20450;-84
2022/06/26 04:09:05;;;;;;;11.45;8.80;;;17.20;99.90;;;;;;5081084;28;20442;-84
2022/06/26 04:11:30;;;;;;;11.48;8.82;;;17.20;99.90;;;;;;5083923;28;20044;-84
2022/06/26 04:13:56;;;;;;;9.98;8.60;;;17.20;99.90;;;;;;5084524;28;20051;-85
2022/06/26 04:16:25;;;;;;;11.15;9.02;;;17.20;99.90;;;;;;5101434;28;20101;-85
2022/06/26 04:18:54;;;;;;;10.93;8.43;;;17.60;99.90;;;;;;5081586;28;20105;-84
2022/06/26 04:21:20;;;;;;;9.10;7.80;;;17.20;99.90;;;;;;5082675;28;20051;-85
2022/06/26 04:23:45;;;;;;;8.00;7.10;;;17.20;99.90;;;;;;5084320;28;20047;-84
2022/06/26 04:26:11;;;;;;;11.35;7.13;;;16.70;99.90;;;;;;5084191;28;20484;-84
2022/06/26 04:28:37;;;;;;;7.47;5.95;;;17.20;99.90;;;;;;5089203;28;20055;-85
2022/06/26 04:31:03;;;;;;;7.97;5.90;;;17.20;99.90;;;;;;5053344;28;20047;-83
2022/06/26 04:33:29;;;;;;;7.60;6.05;;;17.10;99.90;;;;;;5112476;28;20048;-85
2022/06/26 04:35:56;;;;;;;6.93;5.22;;;17.10;99.90;;;;;;5073661;28;20044;-84
2022/06/26 04:38:22;;;;;;;9.35;6.28;;;17.10;99.90;;;;;;5082596;28;20102;-85
2022/06/26 04:40:48;;;;;;;7.72;5.53;;;17.50;99.90;;;;;;5083006;28;20504;-85
2022/06/26 04:43:14;;;;;;;7.75;5.25;;;17.20;99.90;;;;;;5089222;28;20066;-84
2022/06/26 04:45:40;;;;;;;7.10;5.07;;;16.40;99.90;;;;;;5091316;28;20154;-84
2022/06/26 04:48:09;;;;;;;6.13;4.18;;;17.10;99.90;;;;;;5065179;28;20058;-84
2022/06/26 04:50:37;;;;;;;7.35;4.25;;;17.10;99.90;;;;;;5089156;28;20066;-84
2022/06/26 04:53:03;;;;;;;7.90;4.47;;;16.50;99.90;;;;;;5089003;28;20069;-84
2022/06/26 04:55:32;;;;;;;5.65;4.65;;;16.60;99.90;;;;;;5065161;28;20607;-84
2022/06/26 04:57:58;;;;;;;5.85;4.70;;;17.10;99.90;;;;;;5082301;28;20081;-83
2022/06/26 05:00:26;;;;;;;5.07;4.57;;;17.10;99.90;;;;;;5088237;28;20048;-86
2022/06/26 05:02:52;;;;;;;5.57;4.20;;;16.80;99.90;;;;;;5083261;28;20087;-84
2022/06/26 05:05:17;;;;;;;7.28;4.90;;;17.90;99.90;;;;;;5088951;28;20453;-84
2022/06/26 05:07:43;;;;;;;6.88;4.55;;;17.20;99.90;;;;;;5082633;28;20847;-85
2022/06/26 05:10:09;;;;;;;8.98;4.85;;;17.10;99.90;;;;;;5084356;28;20048;-84
2022/06/26 05:12:35;;;;;;;6.78;4.55;;;17.10;99.90;;;;;;5085435;28;20054;-84
2022/06/26 05:15:01;;;;;;;6.05;4.25;;;17.10;99.90;;;;;;5083414;28;20052;-85
2022/06/26 05:17:27;;;;;;;7.45;4.38;;;17.10;99.90;;;;;;5093825;28;20052;-84
2022/06/26 05:19:53;;;;;;;6.50;4.00;;;16.50;99.90;;;;;;5087324;28;20448;-84
2022/06/26 05:22:19;;;;;;;7.97;4.63;;;17.10;99.90;;;;;;5093571;28;20605;-84
2022/06/26 05:24:45;;;;;;;6.53;4.50;;;17.00;99.90;;;;;;5105449;28;20388;-84
2022/06/26 05:27:14;;;;;;;6.07;5.00;;;17.00;99.90;;;;;;5084528;28;20052;-84
2022/06/26 05:29:40;;;;;;;8.80;5.15;;;17.10;99.90;;;;;;5084607;28;20643;-84
2022/06/26 05:32:08;;;;;;;6.00;4.70;;;17.10;99.90;;;;;;5087930;28;20055;-84
2022/06/26 05:34:34;;;;;;;5.60;4.60;;;17.20;99.90;;;;;;5071815;28;20598;-84
2022/06/26 05:37:03;;;;;;;6.68;4.07;;;17.20;99.90;;;;;;5095044;28;20043;-84
2022/06/26 05:39:28;;;;;;;5.68;4.30;;;17.10;99.90;;;;;;5099618;28;20051;-84
2022/06/26 05:41:54;;;;;;;5.07;4.57;;;16.50;99.90;;;;;;5092668;28;20047;-84
2022/06/26 05:44:20;;;;;;;5.25;4.28;;;17.20;99.90;;;;;;5088580;28;20039;-84
2022/06/26 05:46:49;;;;;;;6.05;4.15;;;17.20;99.90;;;;;;5074617;28;20200;-84
2022/06/26 05:49:15;;;;;;;4.85;3.78;;;17.30;99.90;;;;;;5087211;28;20052;-84
2022/06/26 05:51:41;;;;;;;7.35;4.35;;;17.40;99.90;;;;;;5074758;28;20409;-84
2022/06/26 05:54:07;;;;;;;5.65;3.83;;;17.50;99.90;;;;;;5068892;28;20047;-84
2022/06/26 05:56:32;;;;;;;4.68;3.95;;;17.60;99.90;;;;;;5059485;28;20048;-84
2022/06/26 05:58:58;;;;;;;5.07;4.28;;;17.70;99.90;;;;;;5056344;28;20044;-85
2022/06/26 06:01:24;;;;;;;6.25;4.07;;;17.70;99.90;;;;;;5075714;28;20389;-84
2022/06/26 06:03:53;;;;;;;4.38;3.97;;;17.80;99.90;;;;;;5057405;28;20098;-84
2022/06/26 06:06:19;;;;;;;6.40;3.85;;;17.80;99.90;;;;;;5075655;28;20042;-85
2022/06/26 06:08:45;;;;;;;4.38;3.42;;;17.80;99.90;;;;;;5075427;28;20139;-84
2022/06/26 06:11:10;;;;;;;4.63;3.10;;;17.80;99.90;;;;;;5059313;28;20032;-84
2022/06/26 06:13:36;;;;;;;3.80;2.30;;;17.80;99.90;;;;;;5073699;28;20048;-83
2022/06/26 06:16:04;;;;;;;3.63;2.30;;;17.90;99.90;;;;;;5090653;28;20066;-84
2022/06/26 06:18:31;;;;;;;2.78;2.10;;;18.10;99.90;;;;;;5072999;28;20048;-85
2022/06/26 06:20:57;;;;;;;4.07;2.40;;;18.10;99.90;;;;;;5073925;28;20052;-85
2022/06/26 06:23:23;;;;;;;3.75;2.30;;;18.10;99.90;;;;;;5073292;28;20059;-85
2022/06/26 06:25:49;;;;;;;3.72;2.70;;;17.90;99.90;;;;;;5073705;28;20327;-85
2022/06/26 06:28:15;;;;;;;5.30;2.70;;;18.10;99.90;;;;;;5071111;28;20040;-86
2022/06/26 06:30:43;;;;;;;4.43;2.70;;;18.10;99.90;;;;;;5056732;28;20044;-85
2022/06/26 06:33:09;;;;;;;5.65;2.90;;;18.10;99.90;;;;;;5058090;28;20158;-86
2022/06/26 06:35:36;;;;;;;3.20;2.90;;;18.20;99.90;;;;;;5056804;28;20044;-86
2022/06/26 06:38:02;;;;;;;5.80;3.50;;;18.30;99.90;;;;;;5090078;28;20489;-86
2022/06/26 06:40:31;;;;;;;4.90;3.00;;;18.50;99.90;;;;;;5078479;28;20046;-86
2022/06/26 06:42:57;;;;;;;6.15;3.05;;;18.70;99.90;;;;;;5090078;28;20044;-86
2022/06/26 06:45:25;;;;;;;4.10;2.65;;;18.80;99.90;;;;;;5090122;28;20224;-86
2022/06/26 06:47:52;;;;;;;7.75;3.05;;;18.90;99.90;;;;;;5057304;28;20097;-86
2022/06/26 06:50:23;;;;;;;4.90;2.92;;;18.90;99.90;;;;;;5073200;28;20378;-86
2022/06/26 06:52:49;;;;;;;5.45;2.38;;;17.90;99.90;;;;;;5072431;28;20436;-85
2022/06/26 06:55:15;;;;;;;3.33;2.17;;;18.90;99.90;;;;;;5060860;28;20048;-86
2022/06/26 06:57:41;;;;;;;3.22;2.20;;;18.90;99.90;;;;;;5099875;28;20048;-86
2022/06/26 07:00:08;;;;;;;3.60;2.55;;;18.70;99.90;;;;;;5075090;28;20061;-86
2022/06/26 07:02:40;;;;;;;4.43;2.50;;;19.10;99.90;;;;;;5084975;28;20043;-87
2022/06/26 07:05:07;;;;;;;4.32;2.65;;;19.20;99.90;;;;;;5084632;28;20043;-87
2022/06/26 07:07:39;;;;;;;2.97;2.10;;;19.20;99.90;;;;;;5083266;28;20051;-87
2022/06/26 07:10:05;;;;;;;5.68;2.60;;;19.20;99.90;;;;;;5100331;28;20096;-86
2022/06/26 07:12:34;;;;;;;5.75;2.63;;;19.20;99.90;;;;;;5083744;28;20051;-86
2022/06/26 07:15:00;;;;;;;4.20;2.40;;;19.30;99.90;;;;;;5090272;28;20493;-86
2022/06/26 07:17:28;;;;;;;3.80;2.30;;;19.40;99.90;;;;;;5101406;28;20044;-87
2022/06/26 07:19:58;;;;;;;3.00;1.80;;;19.60;99.90;;;;;;5073925;28;20077;-87
2022/06/26 07:22:24;;;;;;;6.32;2.30;;;19.60;99.90;;;;;;5091491;28;20043;-87
2022/06/26 07:24:52;;;;;;;4.20;2.00;;;19.40;99.90;;;;;;5087242;28;20139;-86
2022/06/26 07:27:18;;;;;;;4.80;2.10;;;19.40;99.90;;;;;;5101262;28;20052;-87
2022/06/26 07:29:54;;;;;;;4.70;2.20;;;19.40;99.90;;;;;;5099953;28;20043;-87
2022/06/26 07:32:20;;;;;;;;;;;19.50;99.90;;;;;;5067725;28;20077;-87
2022/06/26 07:34:46;;;;;;;3.95;2.10;;;19.40;99.90;;;;;;5082621;28;20012;-87
2022/06/26 07:37:16;;;;;;;3.95;2.03;;;19.40;99.90;;;;;;5082897;28;20048;-87
2022/06/26 07:39:55;;;;;;;;;;;;;;;;;;;;;
2022/06/26 07:42:21;;;;;;;4.15;2.30;;;19.50;99.90;;;;;;5103067;28;20054;-88
2022/06/26 07:44:50;;;;;;;3.78;2.08;;;19.00;99.90;;;;;;5091259;28;20055;-86
2022/06/26 07:47:26;;;;;;;3.65;1.98;;;19.60;99.90;;;;;;5096179;28;20044;-87
2022/06/26 07:49:52;;;;;;;2.97;1.80;;;19.50;99.90;;;;;;5108399;28;20047;-88
2022/06/26 07:52:18;;;;;;;3.50;1.85;;;19.60;99.90;;;;;;5075066;28;20092;-87
2022/06/26 07:54:44;;;;;;;4.78;2.00;;;19.60;99.90;;;;;;5066810;28;20051;-87
2022/06/26 07:57:10;;;;;;;2.72;1.80;;;19.80;99.90;;;;;;5094351;27;20043;-86
2022/06/26 07:59:38;;;;;;;3.85;1.80;;;19.80;99.90;;;;;;5087718;27;20050;-87
2022/06/26 08:02:05;;;;;;;4.05;1.58;;;19.30;99.90;;;;;;5094094;27;20054;-87
2022/06/26 08:04:30;;;;;;;3.22;1.60;;;20.00;99.90;;;;;;5085060;27;20082;-86
2022/06/26 08:06:56;;;;;;;2.92;1.60;;;20.10;99.90;;;;;;5093929;27;20144;-87
2022/06/26 08:09:22;;;;;;;4.55;1.80;;;20.20;99.90;;;;;;5100808;27;20059;-87
2022/06/26 08:11:48;;;;;;;3.33;1.63;;;20.20;99.90;;;;;;5073810;27;20039;-87
2022/06/26 08:14:14;;;;;;;3.83;1.80;;;20.30;99.90;;;;;;5104410;27;20046;-88
2022/06/26 08:16:40;;;;;;;2.90;1.83;;;20.50;99.90;;;;;;5085462;28;20151;-88
2022/06/26 08:19:07;;;;;;;6.22;1.70;;;20.50;99.90;;;;;;5085259;27;20051;-87
2022/06/26 08:24:18;;;;;;;4.30;1.80;;;20.70;99.90;;;;;;5103233;27;20062;-87
2022/06/26 08:26:43;;;;;;;4.18;1.83;;;20.60;99.90;;;;;;5086719;27;20047;-87
2022/06/26 08:29:12;;;;;;;3.13;1.52;;;20.60;99.90;;;;;;5088457;28;20054;-86
2022/06/26 08:31:40;;;;;;;3.90;1.85;;;20.30;99.90;;;;;;5097557;27;20094;-87
2022/06/26 08:34:09;;;;;;;4.35;1.80;;;20.40;99.90;;;;;;5085897;28;20480;-87
2022/06/26 08:36:35;;;;;;;4.60;2.10;;;20.40;99.90;;;;;;5094418;28;20042;-87
2022/06/26 08:39:12;;;;;;;3.85;1.83;;;20.50;99.90;;;;;;5086147;27;20039;-88
2022/06/26 08:41:41;;;;;;;3.65;1.90;;;20.50;99.90;;;;;;5104604;27;20074;-87
2022/06/26 08:44:15;;;;;;;3.63;1.88;;;20.00;99.90;;;;;;5103238;27;20046;-87
2022/06/26 08:46:51;;;;;;;5.13;2.10;;;20.00;99.90;;;;;;5085491;28;20700;-88
2022/06/26 08:49:21;;;;;;;3.30;2.25;;;20.90;99.90;;;;;;5076594;27;20040;-87
2022/06/26 08:51:48;;;;;;;3.42;2.20;;;20.40;99.90;;;;;;5092760;27;20047;-87
2022/06/26 08:54:17;;;;;;;4.07;2.00;;;20.40;99.90;;;;;;5094313;28;20048;-87
2022/06/26 08:56:48;;;;;;;3.83;2.00;;;20.90;99.90;;;;;;5087549;28;20051;-88
2022/06/26 08:59:16;;;;;;;4.63;2.00;;;21.30;99.90;;;;;;5086293;28;20078;-88
2022/06/26 09:01:45;;;;;;;3.78;1.92;;;21.30;99.90;;;;;;5092715;28;20074;-88
2022/06/26 09:04:13;;;;;;;4.90;2.00;;;22.00;99.90;;;;;;5085326;28;20036;-88
2022/06/26 09:06:43;;;;;;;5.32;1.83;;;22.20;99.90;;;;;;5085852;28;20373;-86
2022/06/26 09:09:24;;;;;;;3.90;1.70;;;22.10;99.90;;;;;;5071020;28;20485;-88
2022/06/26 09:11:54;;;;;;;3.88;1.45;;;22.00;99.90;;;;;;5104771;28;20047;-88
2022/06/26 09:14:23;;;;;;;3.47;1.70;;;21.90;99.90;;;;;;5089263;28;20055;-87
2022/06/26 09:16:59;;;;;;;2.47;1.30;;;21.80;99.90;;;;;;5103078;28;20486;-88
2022/06/26 09:19:33;;;;;;;2.90;1.42;;;21.70;99.90;;;;;;5087326;28;20061;-88
2022/06/26 09:22:08;;;;;;;3.85;1.48;;;21.60;99.90;;;;;;5085875;28;20050;-87
2022/06/26 09:24:50;;;;;;;3.40;1.25;;;21.40;99.90;;;;;;5088017;28;20043;-87
2022/06/26 09:27:16;;;;;;;4.22;1.42;;;21.30;99.90;;;;;;5087005;28;20036;-86
2022/06/26 09:29:49;;;;;;;3.55;1.38;;;21.40;99.90;;;;;;5071394;28;20219;-87
2022/06/26 09:32:18;;;;;;;2.85;1.05;;;21.20;99.90;;;;;;5086778;28;20096;-88
2022/06/26 09:34:51;;;;;;;3.05;0.98;;;20.70;99.90;;;;;;5102956;28;20044;-88
2022/06/26 09:37:18;;;;;;;2.58;1.15;;;20.90;99.90;;;;;;5103490;28;20477;-88
2022/06/26 09:39:47;;;;;;;4.05;1.42;;;21.20;99.90;;;;;;5093507;28;20113;-87
2022/06/26 09:42:22;;;;;;;4.22;1.30;;;21.20;99.90;;;;;;5086986;28;20162;-87
2022/06/26 09:44:59;;;;;;;;;;;;;;;;;;;;;
2022/06/26 09:47:42;;;;;;;2.58;1.45;;;21.30;99.90;;;;;;5103833;28;20109;-87
2022/06/26 09:50:11;;;;;;;3.05;1.10;;;21.50;99.90;;;;;;5092021;28;20048;-87
2022/06/26 09:52:37;;;;;;;2.97;1.20;;;21.60;99.90;;;;;;5085900;28;20043;-88
2022/06/26 09:55:11;;;;;;;2.22;1.10;;;21.90;99.90;;;;;;5087221;28;20098;-88
2022/06/26 09:57:49;;;;;;;2.88;1.30;;;22.10;99.90;;;;;;5103449;28;20048;-86
2022/06/26 10:00:15;;;;;;;2.80;1.52;;;22.10;99.90;;;;;;5087726;28;20051;-88
2022/06/26 10:08:15;;;;;;;2.95;1.38;;;22.30;99.90;;;;;;5093548;27;20047;-88
2022/06/26 10:10:42;;;;;;;4.80;1.80;;;22.60;99.90;;;;;;5091010;27;20043;-88
2022/06/26 10:13:12;;;;;;;2.85;1.20;;;22.90;99.90;;;;;;5088422;27;20058;-89
2022/06/26 10:16:16;;;;;;;2.92;1.48;;;22.60;99.90;;;;;;5092382;27;20043;-86
2022/06/26 10:19:00;;;;;;;5.05;1.85;;;22.80;99.90;;;;;;5096336;27;20092;-88
2022/06/26 10:21:27;;;;;;;4.18;1.50;;;22.70;99.90;;;;;;5097320;27;20055;-88
2022/06/26 10:24:02;;;;;;;2.00;1.30;;;22.70;99.90;;;;;;5073283;27;20050;-87
2022/06/26 10:26:35;;;;;;;4.18;1.58;;;22.50;99.90;;;;;;5090587;27;20071;-86
2022/06/26 10:29:08;;;;;;;3.13;1.48;;;22.40;99.90;;;;;;5096929;27;20050;-87
2022/06/26 10:31:49;;;;;;;4.25;1.40;;;22.40;99.90;;;;;;5097746;27;20052;-86
2022/06/26 10:34:25;;;;;;;4.97;1.80;;;22.40;99.90;;;;;;5098180;27;20089;-87
2022/06/26 10:37:13;;;;;;;3.40;1.60;;;22.50;99.90;;;;;;5095658;27;20059;-86
2022/06/26 10:39:42;;;;;;;3.13;1.50;;;22.50;99.90;;;;;;5092367;27;20046;-87
2022/06/26 10:45:20;;;;;;;3.78;1.60;;;22.70;99.90;;;;;;5105482;27;20485;-85
2022/06/26 10:47:54;;;;;;;4.15;1.42;;;22.40;99.90;;;;;;5089854;27;20043;-87
2022/06/26 10:50:38;;;;;;;4.18;1.50;;;22.30;99.90;;;;;;5096976;27;20556;-87
2022/06/26 10:53:27;;;;;;;4.70;1.40;;;22.20;99.90;;;;;;5087610;27;20502;-87
2022/06/26 10:56:00;;;;;;;3.80;1.23;;;22.20;99.90;;;;;;5087358;27;20039;-89
2022/06/26 10:58:32;;;;;;;5.25;1.40;;;22.10;99.90;;;;;;5097233;27;20059;-87
2022/06/26 11:01:09;;;;;;;4.10;1.27;;;22.10;99.90;;;;;;5108247;27;20058;-87
2022/06/26 11:03:37;;;;;;;2.50;1.40;;;22.10;99.90;;;;;;5089559;27;20107;-87
2022/06/26 11:06:15;;;;;;;3.80;1.40;;;22.00;99.90;;;;;;5089332;27;20051;-87
2022/06/26 11:08:48;;;;;;;9.35;2.83;;;22.00;99.90;;;;;;5099525;27;20205;-86
2022/06/26 11:11:32;;;;;;;3.67;1.42;;;21.90;99.90;;;;;;5098396;27;20135;-88
2022/06/26 11:14:02;;;;;;;4.05;1.80;;;22.00;99.90;;;;;;5097269;27;20434;-86
2022/06/26 11:16:41;;;;;;;3.95;1.33;;;22.10;99.90;;;;;;5099979;27;20049;-87
2022/06/26 11:19:20;;;;;;;3.88;1.40;;;21.90;99.90;;;;;;5074082;27;20043;-87
2022/06/26 11:21:57;;;;;;;4.43;1.48;;;21.70;99.90;;;;;;5087912;27;20561;-87
2022/06/26 11:24:23;;;;;;;3.30;1.35;;;22.10;99.90;;;;;;5073860;27;20093;-88
2022/06/26 11:26:52;;;;;;;4.57;1.80;;;21.80;99.90;;;;;;5094897;27;20388;-86
2022/06/26 11:29:20;;;;;;;3.85;1.40;;;22.20;99.90;;;;;;5091572;27;20453;-88
2022/06/26 11:31:50;;;;;;;3.30;1.40;;;22.30;99.90;;;;;;5072932;27;20047;-87
2022/06/26 11:34:17;;;;;;;5.00;1.70;;;22.50;99.90;;;;;;5088500;27;20539;-87
2022/06/26 11:36:57;;;;;;;4.07;1.45;;;22.50;99.90;;;;;;5087749;27;20096;-87
2022/06/26 11:39:42;;;;;;;4.68;1.45;;;22.50;99.90;;;;;;5094289;27;20101;-87
2022/06/26 11:42:25;;;;;;;4.47;1.65;;;22.40;99.90;;;;;;5087100;27;20484;-87
2022/06/26 11:44:55;;;;;;;3.75;1.40;;;22.30;99.90;;;;;;5103533;27;20055;-87
2022/06/26 11:47:26;;;;;;;3.38;1.33;;;22.30;99.90;;;;;;5103474;27;20047;-87
2022/06/26 11:49:57;;;;;;;5.30;1.80;;;22.50;99.90;;;;;;5104662;27;20395;-87
2022/06/26 11:52:26;;;;;;;5.03;2.97;;;22.80;99.90;;;;;;5085710;28;20051;-87
2022/06/26 11:55:19;;;;;;;2.63;1.20;;;22.90;99.90;;;;;;5096287;27;20133;-87
2022/06/26 11:57:46;;;;;;;4.43;1.45;;;23.10;99.90;;;;;;5090454;27;20492;-87
2022/06/26 12:00:18;;;;;;;4.38;1.50;;;23.20;99.90;;;;;;5106657;27;20051;-87
2022/06/26 12:02:48;;;;;;;3.63;1.38;;;23.30;99.90;;;;;;5108462;27;20047;-87
2022/06/26 12:05:27;;;;;;;2.83;1.50;;;23.30;99.90;;;;;;5088851;27;20086;-87
2022/06/26 12:07:55;;;;;;;6.20;1.60;;;23.30;99.90;;;;;;5086592;27;20048;-86
2022/06/26 12:10:36;;;;;;;3.25;1.60;;;23.00;99.90;;;;;;5105875;27;20042;-87
2022/06/26 12:13:07;;;;;;;4.57;1.65;;;23.40;99.90;;;;;;5096725;27;20058;-88
2022/06/26 12:15:39;;;;;;;3.55;1.58;;;23.60;99.90;;;;;;5103623;27;20069;-87
2022/06/26 12:18:07;;;;;;;22.63;3.30;;;23.50;99.90;;;;;;5105196;27;20086;-88
2022/06/26 12:20:41;;;;;;;3.28;1.42;;;23.60;99.90;;;;;;5107754;27;20096;-88
2022/06/26 12:23:13;;;;;;;4.78;1.67;;;24.20;99.90;;;;;;5105395;27;20047;-87
2022/06/26 12:25:49;;;;;;;2.42;1.15;;;24.20;99.90;;;;;;5078067;27;20496;-87
2022/06/26 12:28:24;;;;;;;3.33;1.48;;;24.20;99.90;;;;;;5079803;27;20051;-86
2022/06/26 12:30:50;;;;;;;3.58;1.50;;;23.40;99.90;;;;;;5095975;27;20074;-87
2022/06/26 12:33:19;;;;;;;4.18;1.48;;;24.10;99.90;;;;;;5095092;27;20387;-87
2022/06/26 12:35:45;;;;;;;3.72;1.35;;;24.00;99.90;;;;;;5109584;27;20062;-87
2022/06/26 12:38:13;;;;;;;3.95;1.30;;;23.80;99.90;;;;;;5087188;27;20138;-87
2022/06/26 12:40:57;;;;;;;2.90;1.60;;;23.60;99.90;;;;;;5092986;27;20035;-87
2022/06/26 12:43:25;;;;;;;7.25;2.00;;;23.40;99.90;;;;;;5088685;28;20062;-87
2022/06/26 12:46:00;;;;;;;5.60;1.50;;;23.30;99.90;;;;;;5086537;27;20055;-87
2022/06/26 12:48:29;;;;;;;4.18;1.50;;;23.20;99.90;;;;;;5089202;27;20081;-87
2022/06/26 12:50:55;;;;;;;4.28;1.38;;;23.10;99.90;;;;;;5074847;27;20047;-87
2022/06/26 12:53:24;;;;;;;4.82;1.58;;;23.10;99.90;;;;;;5095134;27;20096;-87
2022/06/26 12:55:53;;;;;;;3.38;1.40;;;23.00;99.90;;;;;;5086652;28;20052;-87
2022/06/26 12:58:27;;;;;;;4.03;1.50;;;23.00;99.90;;;;;;5103449;28;20438;-87
2022/06/26 13:00:54;;;;;;;4.18;1.30;;;23.00;99.90;;;;;;5076255;28;20079;-87
2022/06/26 13:03:21;;;;;;;4.03;1.50;;;22.30;99.90;;;;;;5100909;28;20481;-88
2022/06/26 13:05:53;;;;;;;3.47;1.50;;;22.80;99.90;;;;;;5084008;28;20044;-88
2022/06/26 13:08:19;;;;;;;9.57;2.15;;;22.80;99.90;;;;;;5083329;28;20051;-87
2022/06/26 13:10:45;;;;;;;4.57;1.40;;;23.10;99.90;;;;;;5066368;28;20489;-87
2022/06/26 13:13:15;;;;;;;4.35;1.60;;;22.70;99.90;;;;;;5092079;28;20134;-87
2022/06/26 13:15:59;;;;;;;3.97;1.65;;;22.70;99.90;;;;;;5076208;28;20040;-87